Terminal Aerodrome Forecast
Issued by NWS North Platte, NE

Home | Current Version | Previous Version | Text Only | Print | Product List | Glossary Off
Versions: 1 2 3 4 5 6 7 8 9 10 11 12 13 14 15 16 17 18

000
FTUS43 KLBF 272300
TAFVTN
TAF
KVTN 272322Z 2800/2824 16014G24KT P6SM SKC
     FM280100 16010KT P6SM SKC
     FM281200 16006KT P6SM SCT080
     FM281800 16011G17KT P6SM SCT080=

USA.gov is the U.S. government's official web portal to all federal, state and local government web resources and services.